Pagrindinis puslapis
METAR-TAF:

METAR-TAF

Oro uostai :

Japas, Mikronezija

platuma: 09-29N, ilguma: 138-05E, Aukštis: 28 m

Dabartinis oras

Ataskaita buvo paskelbta 51 minutes, ne 01:52 UTC
Vėjas 3 kt nuo kintamojo kryptimis
Temperatūra 30°C
Drėgmė 79%
Slėgis 1013 hPa
Matomumas: 19.3 km
Mažai debesys ne aukštis 1700 ft
Su prošvaistėmis ne aukštis 30000 ft

METAR: PTYA 170152Z VRB03KT 12SM FEW017 BKN300 30/26 A2991 RMK SLP130 T03010257

Laikas: 12:43 (02:43 UTC)

Prognozė

Ataskaita buvo paskelbta 3 valandos ir 6 minutes, ne 23:37 UTC
Prognozė galioja nuo 17 metu 00 UTC su 17 metu 24 UTC
Vėjas 6 kt nuo kintamojo kryptimis
Matomumas: 10 km
Mažai debesys ne aukštis 1600 ft
Išsisklaidę debesys ne aukštis 12000 ft
Liūtis kaimynystėje

TAF: PTYA 162337Z 1700/1724 VRB06KT P6SM VCSH FEW016 SCT120

Orai ataskaitas ir orų prognozės (METAR, TAF).

turimą stotys yra geltonos ir raudonos taškus žemėlapyje.

Perkelti pele per norėdami pamatyti stoties vardą.

Tada spustelėkite, norėdami matyti oro stebėjimo ir prognozės.

Norėdami pakeisti žemėlapį: spustelėkite ant žalios mygtukų su juodo kryžiaus žemyn,; žalią mygtuką su brūkšneliu, jei norite nutolinti; arba žalių rodyklių gretimoms žemėlapius.


METAR-TAF: